sensor_id;sensor_type;location;lat;lon;timestamp;temperature;humidity
11142;DHT22;5625;50.122;19.864;2022-07-24T00:01:15;22.60;99.90
11142;DHT22;5625;50.122;19.864;2022-07-24T00:03:45;22.60;99.90
11142;DHT22;5625;50.122;19.864;2022-07-24T00:06:13;22.60;99.90
11142;DHT22;5625;50.122;19.864;2022-07-24T00:08:41;22.50;99.90
11142;DHT22;5625;50.122;19.864;2022-07-24T00:11:09;22.50;99.90
11142;DHT22;5625;50.122;19.864;2022-07-24T00:13:37;22.50;99.90
11142;DHT22;5625;50.122;19.864;2022-07-24T00:16:06;22.50;99.90
11142;DHT22;5625;50.122;19.864;2022-07-24T00:18:35;22.50;99.90
11142;DHT22;5625;50.122;19.864;2022-07-24T00:21:04;22.40;99.90
11142;DHT22;5625;50.122;19.864;2022-07-24T00:23:33;22.40;99.90
11142;DHT22;5625;50.122;19.864;2022-07-24T00:26:02;22.30;99.90
11142;DHT22;5625;50.122;19.864;2022-07-24T00:28:30;22.30;99.90
11142;DHT22;5625;50.122;19.864;2022-07-24T00:30:58;22.30;99.90
11142;DHT22;5625;50.122;19.864;2022-07-24T00:33:26;22.30;99.90
11142;DHT22;5625;50.122;19.864;2022-07-24T00:35:54;22.30;99.90
11142;DHT22;5625;50.122;19.864;2022-07-24T00:38:24;22.20;99.90
11142;DHT22;5625;50.122;19.864;2022-07-24T00:40:52;22.20;99.90
11142;DHT22;5625;50.122;19.864;2022-07-24T00:43:20;22.20;99.90
11142;DHT22;5625;50.122;19.864;2022-07-24T00:45:48;22.20;99.90
11142;DHT22;5625;50.122;19.864;2022-07-24T00:48:17;22.10;99.90
11142;DHT22;5625;50.122;19.864;2022-07-24T00:50:47;22.10;99.90
11142;DHT22;5625;50.122;19.864;2022-07-24T00:53:15;22.10;99.90
11142;DHT22;5625;50.122;19.864;2022-07-24T00:55:45;22.00;99.90
11142;DHT22;5625;50.122;19.864;2022-07-24T00:58:13;22.00;99.90
11142;DHT22;5625;50.122;19.864;2022-07-24T01:00:41;22.10;99.90
11142;DHT22;5625;50.122;19.864;2022-07-24T01:03:09;22.00;99.90
11142;DHT22;5625;50.122;19.864;2022-07-24T01:05:37;22.00;99.90
11142;DHT22;5625;50.122;19.864;2022-07-24T01:08:05;22.00;99.90
11142;DHT22;5625;50.122;19.864;2022-07-24T01:10:34;22.00;99.90
11142;DHT22;5625;50.122;19.864;2022-07-24T01:13:03;21.90;99.90
11142;DHT22;5625;50.122;19.864;2022-07-24T01:15:32;21.90;99.90
11142;DHT22;5625;50.122;19.864;2022-07-24T01:18:02;21.90;99.90
11142;DHT22;5625;50.122;19.864;2022-07-24T01:20:30;21.90;99.90
11142;DHT22;5625;50.122;19.864;2022-07-24T01:23:00;21.90;99.90
11142;DHT22;5625;50.122;19.864;2022-07-24T01:25:28;21.80;99.90
11142;DHT22;5625;50.122;19.864;2022-07-24T01:27:56;21.80;99.90
11142;DHT22;5625;50.122;19.864;2022-07-24T01:30:25;21.80;99.90
11142;DHT22;5625;50.122;19.864;2022-07-24T01:32:53;21.70;99.90
11142;DHT22;5625;50.122;19.864;2022-07-24T01:35:21;21.70;99.90
11142;DHT22;5625;50.122;19.864;2022-07-24T01:37:50;21.70;99.90
11142;DHT22;5625;50.122;19.864;2022-07-24T01:40:20;21.70;99.90
11142;DHT22;5625;50.122;19.864;2022-07-24T01:42:49;21.60;99.90
11142;DHT22;5625;50.122;19.864;2022-07-24T01:45:17;21.60;99.90
11142;DHT22;5625;50.122;19.864;2022-07-24T01:47:46;21.60;99.90
11142;DHT22;5625;50.122;19.864;2022-07-24T01:50:14;21.50;99.90
11142;DHT22;5625;50.122;19.864;2022-07-24T01:52:43;21.50;99.90
11142;DHT22;5625;50.122;19.864;2022-07-24T01:55:11;21.50;99.90
11142;DHT22;5625;50.122;19.864;2022-07-24T01:57:41;21.50;99.90
11142;DHT22;5625;50.122;19.864;2022-07-24T02:00:10;21.50;99.90
11142;DHT22;5625;50.122;19.864;2022-07-24T02:02:40;21.50;99.90
11142;DHT22;5625;50.122;19.864;2022-07-24T02:05:09;21.50;99.90
11142;DHT22;5625;50.122;19.864;2022-07-24T02:07:40;21.50;99.90
11142;DHT22;5625;50.122;19.864;2022-07-24T02:10:10;21.50;99.90
11142;DHT22;5625;50.122;19.864;2022-07-24T02:12:38;21.50;99.90
11142;DHT22;5625;50.122;19.864;2022-07-24T02:15:09;21.40;99.90
11142;DHT22;5625;50.122;19.864;2022-07-24T02:17:37;21.40;99.90
11142;DHT22;5625;50.122;19.864;2022-07-24T02:20:06;21.40;99.90
11142;DHT22;5625;50.122;19.864;2022-07-24T02:22:36;21.30;99.90
11142;DHT22;5625;50.122;19.864;2022-07-24T02:25:05;21.20;99.90
11142;DHT22;5625;50.122;19.864;2022-07-24T02:27:34;21.30;99.90
11142;DHT22;5625;50.122;19.864;2022-07-24T02:30:03;21.20;99.90
11142;DHT22;5625;50.122;19.864;2022-07-24T02:32:32;21.20;99.90
11142;DHT22;5625;50.122;19.864;2022-07-24T02:35:01;21.20;99.90
11142;DHT22;5625;50.122;19.864;2022-07-24T02:37:35;21.20;99.90
11142;DHT22;5625;50.122;19.864;2022-07-24T02:40:05;21.20;99.90
11142;DHT22;5625;50.122;19.864;2022-07-24T02:42:33;21.20;99.90
11142;DHT22;5625;50.122;19.864;2022-07-24T02:45:01;21.20;99.90
11142;DHT22;5625;50.122;19.864;2022-07-24T02:47:31;21.10;99.90
11142;DHT22;5625;50.122;19.864;2022-07-24T02:49:59;21.10;99.90
11142;DHT22;5625;50.122;19.864;2022-07-24T02:52:27;21.10;99.90
11142;DHT22;5625;50.122;19.864;2022-07-24T02:54:55;21.10;99.90
11142;DHT22;5625;50.122;19.864;2022-07-24T02:57:23;21.10;99.90
11142;DHT22;5625;50.122;19.864;2022-07-24T02:59:52;21.10;99.90
11142;DHT22;5625;50.122;19.864;2022-07-24T03:02:20;21.10;99.90
11142;DHT22;5625;50.122;19.864;2022-07-24T03:04:49;21.10;99.90
11142;DHT22;5625;50.122;19.864;2022-07-24T03:07:17;21.00;99.90
11142;DHT22;5625;50.122;19.864;2022-07-24T03:09:45;21.00;99.90
11142;DHT22;5625;50.122;19.864;2022-07-24T03:12:13;21.00;99.90
11142;DHT22;5625;50.122;19.864;2022-07-24T03:14:41;21.00;99.90
11142;DHT22;5625;50.122;19.864;2022-07-24T03:17:10;21.00;99.90
11142;DHT22;5625;50.122;19.864;2022-07-24T03:19:38;21.00;99.90
11142;DHT22;5625;50.122;19.864;2022-07-24T03:22:07;21.00;99.90
11142;DHT22;5625;50.122;19.864;2022-07-24T03:24:35;21.00;99.90
11142;DHT22;5625;50.122;19.864;2022-07-24T03:27:05;21.00;99.90
11142;DHT22;5625;50.122;19.864;2022-07-24T03:29:33;21.00;99.90
11142;DHT22;5625;50.122;19.864;2022-07-24T03:32:01;21.00;99.90
11142;DHT22;5625;50.122;19.864;2022-07-24T03:34:29;21.00;99.90
11142;DHT22;5625;50.122;19.864;2022-07-24T03:36:57;21.00;99.90
11142;DHT22;5625;50.122;19.864;2022-07-24T03:39:26;21.00;99.90
11142;DHT22;5625;50.122;19.864;2022-07-24T03:41:55;21.00;99.90
11142;DHT22;5625;50.122;19.864;2022-07-24T03:44:23;21.00;99.90
11142;DHT22;5625;50.122;19.864;2022-07-24T03:46:51;21.00;99.90
11142;DHT22;5625;50.122;19.864;2022-07-24T03:49:19;21.00;99.90
11142;DHT22;5625;50.122;19.864;2022-07-24T03:51:47;21.00;99.90
11142;DHT22;5625;50.122;19.864;2022-07-24T03:54:15;20.90;99.90
11142;DHT22;5625;50.122;19.864;2022-07-24T03:56:45;20.90;99.90
11142;DHT22;5625;50.122;19.864;2022-07-24T03:59:13;20.90;99.90
11142;DHT22;5625;50.122;19.864;2022-07-24T04:01:41;20.90;99.90
11142;DHT22;5625;50.122;19.864;2022-07-24T04:04:09;20.90;99.90
11142;DHT22;5625;50.122;19.864;2022-07-24T04:06:37;20.90;99.90
11142;DHT22;5625;50.122;19.864;2022-07-24T04:09:08;20.90;99.90
11142;DHT22;5625;50.122;19.864;2022-07-24T04:11:37;20.90;99.90
11142;DHT22;5625;50.122;19.864;2022-07-24T04:14:06;21.00;99.90
11142;DHT22;5625;50.122;19.864;2022-07-24T04:16:34;20.90;99.90
11142;DHT22;5625;50.122;19.864;2022-07-24T04:19:02;21.00;99.90
11142;DHT22;5625;50.122;19.864;2022-07-24T04:21:33;21.00;99.90
11142;DHT22;5625;50.122;19.864;2022-07-24T04:24:01;21.00;99.90
11142;DHT22;5625;50.122;19.864;2022-07-24T04:26:29;21.00;99.90
11142;DHT22;5625;50.122;19.864;2022-07-24T04:28:57;21.00;99.90
11142;DHT22;5625;50.122;19.864;2022-07-24T04:31:27;21.10;99.90
11142;DHT22;5625;50.122;19.864;2022-07-24T04:33:58;21.10;99.90
11142;DHT22;5625;50.122;19.864;2022-07-24T04:36:26;21.10;99.90
11142;DHT22;5625;50.122;19.864;2022-07-24T04:38:54;21.10;99.90
11142;DHT22;5625;50.122;19.864;2022-07-24T04:41:22;21.20;99.90
11142;DHT22;5625;50.122;19.864;2022-07-24T04:43:50;21.20;99.90
11142;DHT22;5625;50.122;19.864;2022-07-24T04:46:18;21.20;99.90
11142;DHT22;5625;50.122;19.864;2022-07-24T04:48:48;21.20;99.90
11142;DHT22;5625;50.122;19.864;2022-07-24T04:51:16;21.20;99.90
11142;DHT22;5625;50.122;19.864;2022-07-24T04:53:44;21.20;99.90
11142;DHT22;5625;50.122;19.864;2022-07-24T04:56:13;21.30;99.90
11142;DHT22;5625;50.122;19.864;2022-07-24T04:58:41;21.30;99.90
11142;DHT22;5625;50.122;19.864;2022-07-24T05:01:09;21.30;99.90
11142;DHT22;5625;50.122;19.864;2022-07-24T05:03:37;21.40;99.90
11142;DHT22;5625;50.122;19.864;2022-07-24T05:06:07;21.40;99.90
11142;DHT22;5625;50.122;19.864;2022-07-24T05:08:35;21.50;99.90
11142;DHT22;5625;50.122;19.864;2022-07-24T05:11:03;21.60;99.90
11142;DHT22;5625;50.122;19.864;2022-07-24T05:13:31;21.70;99.90
11142;DHT22;5625;50.122;19.864;2022-07-24T05:15:59;21.70;99.90
11142;DHT22;5625;50.122;19.864;2022-07-24T05:18:28;21.90;99.90
11142;DHT22;5625;50.122;19.864;2022-07-24T05:20:56;21.90;99.90
11142;DHT22;5625;50.122;19.864;2022-07-24T05:23:25;22.10;99.90
11142;DHT22;5625;50.122;19.864;2022-07-24T05:25:54;22.30;99.90
11142;DHT22;5625;50.122;19.864;2022-07-24T05:28:22;22.40;99.90
11142;DHT22;5625;50.122;19.864;2022-07-24T05:30:50;22.60;99.90
11142;DHT22;5625;50.122;19.864;2022-07-24T05:33:18;22.70;99.90
11142;DHT22;5625;50.122;19.864;2022-07-24T05:35:46;22.90;99.90
11142;DHT22;5625;50.122;19.864;2022-07-24T05:38:15;23.10;99.90
11142;DHT22;5625;50.122;19.864;2022-07-24T05:40:44;23.30;99.90
11142;DHT22;5625;50.122;19.864;2022-07-24T05:43:12;23.50;99.90
11142;DHT22;5625;50.122;19.864;2022-07-24T05:45:43;23.70;99.90
11142;DHT22;5625;50.122;19.864;2022-07-24T05:48:11;23.90;99.90
11142;DHT22;5625;50.122;19.864;2022-07-24T05:50:39;24.10;99.90
11142;DHT22;5625;50.122;19.864;2022-07-24T05:53:07;24.30;99.90
11142;DHT22;5625;50.122;19.864;2022-07-24T05:55:38;24.60;99.90
11142;DHT22;5625;50.122;19.864;2022-07-24T05:58:07;24.90;99.90
11142;DHT22;5625;50.122;19.864;2022-07-24T06:00:36;25.00;99.90
11142;DHT22;5625;50.122;19.864;2022-07-24T06:03:04;25.20;99.90
11142;DHT22;5625;50.122;19.864;2022-07-24T06:05:32;25.40;99.90
11142;DHT22;5625;50.122;19.864;2022-07-24T06:08:00;25.60;99.90
11142;DHT22;5625;50.122;19.864;2022-07-24T06:10:28;25.80;99.90
11142;DHT22;5625;50.122;19.864;2022-07-24T06:12:57;25.90;99.90
11142;DHT22;5625;50.122;19.864;2022-07-24T06:15:26;26.20;99.90
11142;DHT22;5625;50.122;19.864;2022-07-24T06:17:55;26.40;99.90
11142;DHT22;5625;50.122;19.864;2022-07-24T06:20:23;26.60;99.90
11142;DHT22;5625;50.122;19.864;2022-07-24T06:22:52;26.90;99.90
11142;DHT22;5625;50.122;19.864;2022-07-24T06:25:20;27.20;99.90
11142;DHT22;5625;50.122;19.864;2022-07-24T06:27:49;27.40;99.90
11142;DHT22;5625;50.122;19.864;2022-07-24T06:30:19;27.50;99.80
11142;DHT22;5625;50.122;19.864;2022-07-24T06:32:52;27.50;99.50
11142;DHT22;5625;50.122;19.864;2022-07-24T06:35:20;27.70;98.90
11142;DHT22;5625;50.122;19.864;2022-07-24T06:37:48;27.80;99.20
11142;DHT22;5625;50.122;19.864;2022-07-24T06:40:17;27.70;98.70
11142;DHT22;5625;50.122;19.864;2022-07-24T06:42:48;28.00;98.70
11142;DHT22;5625;50.122;19.864;2022-07-24T06:45:17;28.20;98.20
11142;DHT22;5625;50.122;19.864;2022-07-24T06:47:46;28.30;98.00
11142;DHT22;5625;50.122;19.864;2022-07-24T06:50:15;28.60;97.60
11142;DHT22;5625;50.122;19.864;2022-07-24T06:52:43;28.90;97.40
11142;DHT22;5625;50.122;19.864;2022-07-24T06:55:13;28.90;96.70
11142;DHT22;5625;50.122;19.864;2022-07-24T06:57:41;29.20;96.50
11142;DHT22;5625;50.122;19.864;2022-07-24T07:00:11;29.50;96.10
11142;DHT22;5625;50.122;19.864;2022-07-24T07:02:39;29.70;95.60
11142;DHT22;5625;50.122;19.864;2022-07-24T07:05:09;29.90;95.70
11142;DHT22;5625;50.122;19.864;2022-07-24T07:07:38;30.10;95.40
11142;DHT22;5625;50.122;19.864;2022-07-24T07:10:07;30.20;94.10
11142;DHT22;5625;50.122;19.864;2022-07-24T07:12:36;30.20;94.50
11142;DHT22;5625;50.122;19.864;2022-07-24T07:15:08;30.30;93.70
11142;DHT22;5625;50.122;19.864;2022-07-24T07:17:37;30.40;93.30
11142;DHT22;5625;50.122;19.864;2022-07-24T07:20:07;30.50;92.30
11142;DHT22;5625;50.122;19.864;2022-07-24T07:22:35;30.20;91.80
11142;DHT22;5625;50.122;19.864;2022-07-24T07:25:06;30.10;91.50
11142;DHT22;5625;50.122;19.864;2022-07-24T07:27:34;30.00;91.40
11142;DHT22;5625;50.122;19.864;2022-07-24T07:30:03;29.80;91.60
11142;DHT22;5625;50.122;19.864;2022-07-24T07:32:32;29.60;91.20
11142;DHT22;5625;50.122;19.864;2022-07-24T07:35:00;29.60;91.00
11142;DHT22;5625;50.122;19.864;2022-07-24T07:37:31;30.10;91.10
11142;DHT22;5625;50.122;19.864;2022-07-24T07:39:59;30.30;90.60
11142;DHT22;5625;50.122;19.864;2022-07-24T07:42:28;30.50;90.00
11142;DHT22;5625;50.122;19.864;2022-07-24T07:44:57;30.50;89.10
11142;DHT22;5625;50.122;19.864;2022-07-24T07:47:25;30.30;89.10
11142;DHT22;5625;50.122;19.864;2022-07-24T07:49:53;30.00;89.50
11142;DHT22;5625;50.122;19.864;2022-07-24T07:52:22;29.80;90.30
11142;DHT22;5625;50.122;19.864;2022-07-24T07:54:53;29.90;90.60
11142;DHT22;5625;50.122;19.864;2022-07-24T07:57:21;30.20;90.70
11142;DHT22;5625;50.122;19.864;2022-07-24T08:00:11;30.60;90.60
11142;DHT22;5625;50.122;19.864;2022-07-24T08:02:39;30.80;90.10
11142;DHT22;5625;50.122;19.864;2022-07-24T08:05:08;31.20;89.90
11142;DHT22;5625;50.122;19.864;2022-07-24T08:07:37;30.80;88.70
11142;DHT22;5625;50.122;19.864;2022-07-24T08:10:06;31.00;88.60
11142;DHT22;5625;50.122;19.864;2022-07-24T08:12:37;31.20;87.60
11142;DHT22;5625;50.122;19.864;2022-07-24T08:15:06;31.40;86.80
11142;DHT22;5625;50.122;19.864;2022-07-24T08:17:36;31.40;86.40
11142;DHT22;5625;50.122;19.864;2022-07-24T08:20:07;31.80;85.30
11142;DHT22;5625;50.122;19.864;2022-07-24T08:22:36;32.10;85.00
11142;DHT22;5625;50.122;19.864;2022-07-24T08:25:05;32.40;83.20
11142;DHT22;5625;50.122;19.864;2022-07-24T08:27:35;32.50;82.00
11142;DHT22;5625;50.122;19.864;2022-07-24T08:30:05;32.40;80.50
11142;DHT22;5625;50.122;19.864;2022-07-24T08:32:33;32.30;81.20
11142;DHT22;5625;50.122;19.864;2022-07-24T08:35:04;31.90;82.30
11142;DHT22;5625;50.122;19.864;2022-07-24T08:37:35;31.40;83.30
11142;DHT22;5625;50.122;19.864;2022-07-24T08:40:06;31.10;83.50
11142;DHT22;5625;50.122;19.864;2022-07-24T08:42:34;31.40;83.90
11142;DHT22;5625;50.122;19.864;2022-07-24T08:45:03;31.70;81.90
11142;DHT22;5625;50.122;19.864;2022-07-24T08:47:32;32.00;82.20
11142;DHT22;5625;50.122;19.864;2022-07-24T08:50:00;32.30;80.80
11142;DHT22;5625;50.122;19.864;2022-07-24T08:52:31;32.30;79.00
11142;DHT22;5625;50.122;19.864;2022-07-24T08:55:08;32.50;78.50
11142;DHT22;5625;50.122;19.864;2022-07-24T08:57:36;32.60;78.20
11142;DHT22;5625;50.122;19.864;2022-07-24T09:00:06;32.40;78.00
11142;DHT22;5625;50.122;19.864;2022-07-24T09:02:37;32.00;77.70
11142;DHT22;5625;50.122;19.864;2022-07-24T09:05:06;31.50;78.10
11142;DHT22;5625;50.122;19.864;2022-07-24T09:07:36;31.30;79.00
11142;DHT22;5625;50.122;19.864;2022-07-24T09:10:06;31.60;78.90
11142;DHT22;5625;50.122;19.864;2022-07-24T09:12:35;32.00;79.20
11142;DHT22;5625;50.122;19.864;2022-07-24T09:15:11;32.50;79.60
11142;DHT22;5625;50.122;19.864;2022-07-24T09:17:51;32.60;78.20
11142;DHT22;5625;50.122;19.864;2022-07-24T09:20:21;32.80;78.50
11142;DHT22;5625;50.122;19.864;2022-07-24T09:22:52;32.80;78.90
11142;DHT22;5625;50.122;19.864;2022-07-24T09:25:21;32.40;79.30
11142;DHT22;5625;50.122;19.864;2022-07-24T09:27:52;32.00;79.00
11142;DHT22;5625;50.122;19.864;2022-07-24T09:30:26;31.70;79.60
11142;DHT22;5625;50.122;19.864;2022-07-24T09:32:56;31.90;79.80
11142;DHT22;5625;50.122;19.864;2022-07-24T09:35:31;32.40;79.30
11142;DHT22;5625;50.122;19.864;2022-07-24T09:38:02;32.50;77.70
11142;DHT22;5625;50.122;19.864;2022-07-24T09:40:32;32.10;78.20
11142;DHT22;5625;50.122;19.864;2022-07-24T09:43:18;32.20;78.20
11142;DHT22;5625;50.122;19.864;2022-07-24T09:45:56;32.10;78.20
11142;DHT22;5625;50.122;19.864;2022-07-24T09:48:26;31.80;77.40
11142;DHT22;5625;50.122;19.864;2022-07-24T09:50:55;31.80;78.10
11142;DHT22;5625;50.122;19.864;2022-07-24T09:53:26;32.20;77.70
11142;DHT22;5625;50.122;19.864;2022-07-24T09:56:13;32.40;76.50
11142;DHT22;5625;50.122;19.864;2022-07-24T09:58:48;32.40;76.30
11142;DHT22;5625;50.122;19.864;2022-07-24T10:01:18;32.20;77.60
11142;DHT22;5625;50.122;19.864;2022-07-24T10:03:48;31.90;78.30
11142;DHT22;5625;50.122;19.864;2022-07-24T10:06:20;31.70;78.20
11142;DHT22;5625;50.122;19.864;2022-07-24T10:08:50;31.90;79.20
11142;DHT22;5625;50.122;19.864;2022-07-24T10:11:19;32.30;78.60
11142;DHT22;5625;50.122;19.864;2022-07-24T10:13:49;32.30;77.40
11142;DHT22;5625;50.122;19.864;2022-07-24T10:16:27;32.00;76.50
11142;DHT22;5625;50.122;19.864;2022-07-24T10:18:57;31.70;75.00
11142;DHT22;5625;50.122;19.864;2022-07-24T10:21:27;31.60;76.70
11142;DHT22;5625;50.122;19.864;2022-07-24T10:27:03;32.20;76.30
11142;DHT22;5625;50.122;19.864;2022-07-24T10:29:33;32.50;76.20
11142;DHT22;5625;50.122;19.864;2022-07-24T10:32:03;32.70;76.20
11142;DHT22;5625;50.122;19.864;2022-07-24T10:34:36;32.80;75.60
11142;DHT22;5625;50.122;19.864;2022-07-24T10:37:11;32.90;74.50
11142;DHT22;5625;50.122;19.864;2022-07-24T10:39:50;32.80;74.80
11142;DHT22;5625;50.122;19.864;2022-07-24T10:42:20;32.40;74.90
11142;DHT22;5625;50.122;19.864;2022-07-24T10:47:54;32.50;75.10
11142;DHT22;5625;50.122;19.864;2022-07-24T10:53:44;32.00;75.80
11142;DHT22;5625;50.122;19.864;2022-07-24T10:56:21;32.30;76.30
11142;DHT22;5625;50.122;19.864;2022-07-24T10:59:04;32.50;76.50
11142;DHT22;5625;50.122;19.864;2022-07-24T11:01:38;32.70;76.10
11142;DHT22;5625;50.122;19.864;2022-07-24T11:04:27;32.80;75.90
11142;DHT22;5625;50.122;19.864;2022-07-24T11:07:06;32.90;74.90
11142;DHT22;5625;50.122;19.864;2022-07-24T11:09:54;33.00;74.10
11142;DHT22;5625;50.122;19.864;2022-07-24T11:12:36;33.20;75.20
11142;DHT22;5625;50.122;19.864;2022-07-24T11:15:14;33.00;73.00
11142;DHT22;5625;50.122;19.864;2022-07-24T11:18:13;32.90;73.40
11142;DHT22;5625;50.122;19.864;2022-07-24T11:20:41;32.60;73.90
11142;DHT22;5625;50.122;19.864;2022-07-24T11:23:18;32.40;74.20
11142;DHT22;5625;50.122;19.864;2022-07-24T11:25:49;32.40;75.00
11142;DHT22;5625;50.122;19.864;2022-07-24T11:28:17;32.40;75.50
11142;DHT22;5625;50.122;19.864;2022-07-24T11:30:48;32.50;75.50
11142;DHT22;5625;50.122;19.864;2022-07-24T11:33:20;32.70;75.40
11142;DHT22;5625;50.122;19.864;2022-07-24T11:35:49;32.80;74.90
11142;DHT22;5625;50.122;19.864;2022-07-24T11:38:28;32.80;75.50
11142;DHT22;5625;50.122;19.864;2022-07-24T11:41:04;33.00;75.50
11142;DHT22;5625;50.122;19.864;2022-07-24T11:43:33;33.00;74.30
11142;DHT22;5625;50.122;19.864;2022-07-24T11:46:03;33.00;73.20
11142;DHT22;5625;50.122;19.864;2022-07-24T11:48:31;33.10;73.50
11142;DHT22;5625;50.122;19.864;2022-07-24T11:51:05;33.30;73.90
11142;DHT22;5625;50.122;19.864;2022-07-24T11:53:53;33.10;73.60
11142;DHT22;5625;50.122;19.864;2022-07-24T11:56:22;32.60;73.90
11142;DHT22;5625;50.122;19.864;2022-07-24T11:58:50;32.30;74.60
11142;DHT22;5625;50.122;19.864;2022-07-24T12:01:23;32.20;74.80
11142;DHT22;5625;50.122;19.864;2022-07-24T12:03:53;32.30;75.10
11142;DHT22;5625;50.122;19.864;2022-07-24T12:06:21;32.50;74.80
11142;DHT22;5625;50.122;19.864;2022-07-24T12:08:57;32.30;74.90
11142;DHT22;5625;50.122;19.864;2022-07-24T12:11:26;32.30;75.90
11142;DHT22;5625;50.122;19.864;2022-07-24T12:13:54;32.40;74.90
11142;DHT22;5625;50.122;19.864;2022-07-24T12:16:27;32.60;74.50
11142;DHT22;5625;50.122;19.864;2022-07-24T12:19:11;32.70;73.80
11142;DHT22;5625;50.122;19.864;2022-07-24T12:21:40;32.80;73.60
11142;DHT22;5625;50.122;19.864;2022-07-24T12:24:09;32.90;73.10
11142;DHT22;5625;50.122;19.864;2022-07-24T12:26:51;32.80;71.70
11142;DHT22;5625;50.122;19.864;2022-07-24T12:29:19;32.90;71.70
11142;DHT22;5625;50.122;19.864;2022-07-24T12:31:52;33.00;71.90
11142;DHT22;5625;50.122;19.864;2022-07-24T12:34:21;33.00;71.70
11142;DHT22;5625;50.122;19.864;2022-07-24T12:36:49;33.00;72.20
11142;DHT22;5625;50.122;19.864;2022-07-24T12:39:17;32.90;71.70
11142;DHT22;5625;50.122;19.864;2022-07-24T12:41:50;32.90;71.50
11142;DHT22;5625;50.122;19.864;2022-07-24T12:44:39;32.90;71.40
11142;DHT22;5625;50.122;19.864;2022-07-24T12:47:10;32.60;70.90
11142;DHT22;5625;50.122;19.864;2022-07-24T12:49:43;32.50;70.10
11142;DHT22;5625;50.122;19.864;2022-07-24T12:52:19;32.40;71.40
11142;DHT22;5625;50.122;19.864;2022-07-24T12:54:51;32.10;71.30
11142;DHT22;5625;50.122;19.864;2022-07-24T12:57:21;32.10;71.50
11142;DHT22;5625;50.122;19.864;2022-07-24T13:00:02;32.10;72.20
11142;DHT22;5625;50.122;19.864;2022-07-24T13:02:32;32.20;72.30
11142;DHT22;5625;50.122;19.864;2022-07-24T13:05:01;32.30;72.90
11142;DHT22;5625;50.122;19.864;2022-07-24T13:07:32;32.20;72.30
11142;DHT22;5625;50.122;19.864;2022-07-24T13:10:00;32.20;72.10
11142;DHT22;5625;50.122;19.864;2022-07-24T13:12:28;32.20;71.80
11142;DHT22;5625;50.122;19.864;2022-07-24T13:14:56;32.20;71.80
11142;DHT22;5625;50.122;19.864;2022-07-24T13:17:24;32.00;71.80
11142;DHT22;5625;50.122;19.864;2022-07-24T13:19:54;31.80;72.20
11142;DHT22;5625;50.122;19.864;2022-07-24T13:22:22;31.80;72.30
11142;DHT22;5625;50.122;19.864;2022-07-24T13:24:51;31.80;72.10
11142;DHT22;5625;50.122;19.864;2022-07-24T13:27:19;31.80;71.90
11142;DHT22;5625;50.122;19.864;2022-07-24T13:29:48;31.70;71.30
11142;DHT22;5625;50.122;19.864;2022-07-24T13:32:16;31.60;70.70
11142;DHT22;5625;50.122;19.864;2022-07-24T13:34:49;31.40;70.70
11142;DHT22;5625;50.122;19.864;2022-07-24T13:37:22;31.40;71.00
11142;DHT22;5625;50.122;19.864;2022-07-24T13:39:50;31.40;70.70
11142;DHT22;5625;50.122;19.864;2022-07-24T13:42:18;31.50;71.50
11142;DHT22;5625;50.122;19.864;2022-07-24T13:44:46;31.40;71.30
11142;DHT22;5625;50.122;19.864;2022-07-24T13:47:14;31.50;72.20
11142;DHT22;5625;50.122;19.864;2022-07-24T13:49:43;31.60;71.40
11142;DHT22;5625;50.122;19.864;2022-07-24T13:52:11;31.60;71.60
11142;DHT22;5625;50.122;19.864;2022-07-24T13:54:40;31.60;71.50
11142;DHT22;5625;50.122;19.864;2022-07-24T13:57:08;31.60;71.70
11142;DHT22;5625;50.122;19.864;2022-07-24T13:59:38;31.50;71.40
11142;DHT22;5625;50.122;19.864;2022-07-24T14:02:07;31.50;71.70
11142;DHT22;5625;50.122;19.864;2022-07-24T14:04:35;31.50;71.50
11142;DHT22;5625;50.122;19.864;2022-07-24T14:07:04;31.50;71.80
11142;DHT22;5625;50.122;19.864;2022-07-24T14:09:32;31.40;70.60
11142;DHT22;5625;50.122;19.864;2022-07-24T14:12:02;31.40;70.80
11142;DHT22;5625;50.122;19.864;2022-07-24T14:14:37;31.40;70.50
11142;DHT22;5625;50.122;19.864;2022-07-24T14:17:06;31.40;71.20
11142;DHT22;5625;50.122;19.864;2022-07-24T14:19:34;31.40;70.80
11142;DHT22;5625;50.122;19.864;2022-07-24T14:22:02;31.40;70.70
11142;DHT22;5625;50.122;19.864;2022-07-24T14:24:30;31.30;70.10
11142;DHT22;5625;50.122;19.864;2022-07-24T14:27:03;31.30;70.00
11142;DHT22;5625;50.122;19.864;2022-07-24T14:29:31;31.20;70.00
11142;DHT22;5625;50.122;19.864;2022-07-24T14:31:59;31.20;70.00
11142;DHT22;5625;50.122;19.864;2022-07-24T14:34:28;31.20;71.80
11142;DHT22;5625;50.122;19.864;2022-07-24T14:36:56;31.20;70.50
11142;DHT22;5625;50.122;19.864;2022-07-24T14:39:24;31.20;70.50
11142;DHT22;5625;50.122;19.864;2022-07-24T14:41:54;31.20;69.60
11142;DHT22;5625;50.122;19.864;2022-07-24T14:44:23;31.10;69.10
11142;DHT22;5625;50.122;19.864;2022-07-24T14:46:51;31.00;69.50
11142;DHT22;5625;50.122;19.864;2022-07-24T14:49:20;31.00;69.90
11142;DHT22;5625;50.122;19.864;2022-07-24T14:51:48;31.00;70.00
11142;DHT22;5625;50.122;19.864;2022-07-24T14:54:17;31.00;70.20
11142;DHT22;5625;50.122;19.864;2022-07-24T14:56:45;31.10;70.00
11142;DHT22;5625;50.122;19.864;2022-07-24T14:59:13;31.00;69.60
11142;DHT22;5625;50.122;19.864;2022-07-24T15:01:47;30.90;69.10
11142;DHT22;5625;50.122;19.864;2022-07-24T15:04:16;30.80;69.10
11142;DHT22;5625;50.122;19.864;2022-07-24T15:06:44;30.80;69.40
11142;DHT22;5625;50.122;19.864;2022-07-24T15:09:12;30.80;70.00
11142;DHT22;5625;50.122;19.864;2022-07-24T15:11:40;30.80;70.00
11142;DHT22;5625;50.122;19.864;2022-07-24T15:14:08;30.80;69.40
11142;DHT22;5625;50.122;19.864;2022-07-24T15:16:36;30.80;69.20
11142;DHT22;5625;50.122;19.864;2022-07-24T15:19:06;30.70;69.40
11142;DHT22;5625;50.122;19.864;2022-07-24T15:21:34;30.70;69.90
11142;DHT22;5625;50.122;19.864;2022-07-24T15:24:03;30.70;69.90
11142;DHT22;5625;50.122;19.864;2022-07-24T15:26:33;30.60;70.00
11142;DHT22;5625;50.122;19.864;2022-07-24T15:29:01;30.50;70.50
11142;DHT22;5625;50.122;19.864;2022-07-24T15:31:29;30.50;70.70
11142;DHT22;5625;50.122;19.864;2022-07-24T15:34:07;30.60;70.60
11142;DHT22;5625;50.122;19.864;2022-07-24T15:36:38;30.50;70.60
11142;DHT22;5625;50.122;19.864;2022-07-24T15:39:08;30.50;70.70
11142;DHT22;5625;50.122;19.864;2022-07-24T15:41:38;30.50;71.20
11142;DHT22;5625;50.122;19.864;2022-07-24T15:44:06;30.40;71.00
11142;DHT22;5625;50.122;19.864;2022-07-24T15:46:35;30.50;71.00
11142;DHT22;5625;50.122;19.864;2022-07-24T15:49:05;30.40;69.50
11142;DHT22;5625;50.122;19.864;2022-07-24T15:51:35;30.40;70.80
11142;DHT22;5625;50.122;19.864;2022-07-24T15:54:04;30.40;71.10
11142;DHT22;5625;50.122;19.864;2022-07-24T15:56:33;30.40;71.10